createdAt,value
2023-05-06T00:04:35.148Z,101171.83
2023-05-06T00:09:38.198Z,101166.77
2023-05-06T00:14:41.495Z,101170.48
2023-05-06T00:19:44.621Z,101168.37
2023-05-06T00:24:47.750Z,101167.61
2023-05-06T00:29:50.651Z,101173.91
2023-05-06T00:34:53.420Z,101180.03
2023-05-06T00:39:59.098Z,101177.52
2023-05-06T00:45:01.897Z,101178.45
2023-05-06T00:50:05.275Z,101179.94
2023-05-06T00:55:08.982Z,101186.42
2023-05-06T01:00:12.661Z,101194.30
2023-05-06T01:05:19.289Z,101198.71
2023-05-06T01:10:33.440Z,101201.55
2023-05-06T01:15:45.963Z,101204.76
2023-05-06T01:20:52.577Z,101203.32
2023-05-06T01:25:55.449Z,101204.27
2023-05-06T01:31:03.810Z,101205.56
2023-05-06T01:36:23.031Z,101212.59
2023-05-06T01:41:27.529Z,101209.58
2023-05-06T01:46:32.137Z,101221.93
2023-05-06T01:51:35.395Z,101210.52
2023-05-06T01:56:38.161Z,101211.47
2023-05-06T02:01:41.003Z,101212.10
2023-05-06T02:06:43.863Z,101210.81
2023-05-06T02:11:46.772Z,101210.21
2023-05-06T02:16:49.558Z,101216.50
2023-05-06T02:21:52.329Z,101218.98
2023-05-06T02:26:55.112Z,101220.45
2023-05-06T02:31:57.869Z,101220.56
2023-05-06T02:37:00.763Z,101220.30
2023-05-06T02:42:03.956Z,101221.42
2023-05-06T02:47:06.738Z,101221.00
2023-05-06T02:52:09.518Z,101216.64
2023-05-06T02:57:12.258Z,101212.49
2023-05-06T03:02:15.009Z,101207.84
2023-05-06T03:07:17.882Z,101203.22
2023-05-06T03:12:20.677Z,101206.95
2023-05-06T03:17:23.489Z,101211.73
2023-05-06T03:22:28.719Z,101200.52
2023-05-06T03:27:31.529Z,101201.04
2023-05-06T03:32:34.646Z,101200.02
2023-05-06T03:37:37.455Z,101195.74
2023-05-06T03:42:40.365Z,101191.27
2023-05-06T03:47:43.204Z,101193.81
2023-05-06T03:52:46.121Z,101201.41
2023-05-06T03:57:48.882Z,101204.11
2023-05-06T04:02:56.235Z,101208.60
2023-05-06T04:07:59.140Z,101207.25
2023-05-06T04:13:02.204Z,101208.52
2023-05-06T04:18:07.925Z,101211.57
2023-05-06T04:23:10.755Z,101204.67
2023-05-06T04:28:13.475Z,101201.22
2023-05-06T04:33:16.800Z,101191.04
2023-05-06T04:38:25.852Z,101188.15
2023-05-06T04:43:28.700Z,101185.11
2023-05-06T04:48:32.342Z,101183.68
2023-05-06T04:53:35.224Z,101187.42
2023-05-06T04:58:37.972Z,101183.74
2023-05-06T05:03:40.778Z,101181.62
2023-05-06T05:08:43.568Z,101177.59
2023-05-06T05:13:46.469Z,101174.01
2023-05-06T05:18:49.260Z,101171.86
2023-05-06T05:23:52.011Z,101166.52
2023-05-06T05:28:54.798Z,101163.28
2023-05-06T05:33:57.560Z,101168.33
2023-05-06T05:39:00.532Z,101157.50
2023-05-06T05:44:03.409Z,101156.90
2023-05-06T05:49:07.077Z,101155.38
2023-05-06T05:54:09.862Z,101152.45
2023-05-06T05:59:12.750Z,101145.05
2023-05-06T06:04:16.061Z,101140.05
2023-05-06T06:09:18.957Z,101143.00
2023-05-06T06:14:21.770Z,101140.91
2023-05-06T06:19:24.592Z,101132.89
2023-05-06T06:24:27.475Z,101131.59
2023-05-06T06:29:30.409Z,101133.66
2023-05-06T06:34:33.500Z,101125.42
2023-05-06T06:39:36.386Z,101118.08
2023-05-06T06:44:39.566Z,101115.56
2023-05-06T06:49:43.143Z,101124.27
2023-05-06T06:54:45.963Z,101109.80
2023-05-06T06:59:51.999Z,101110.17
2023-05-06T07:04:54.919Z,101108.94
2023-05-06T07:09:57.973Z,101107.63
2023-05-06T07:15:00.888Z,101107.86
2023-05-06T07:20:08.009Z,101105.37
2023-05-06T07:25:11.298Z,101107.88
2023-05-06T07:30:14.502Z,101099.98
2023-05-06T07:35:17.582Z,101095.55
2023-05-06T07:40:20.349Z,101093.34
2023-05-06T07:45:25.313Z,101090.20
2023-05-06T07:50:28.140Z,101090.48
2023-05-06T07:55:33.905Z,101090.65
2023-05-06T08:00:41.618Z,101092.38
2023-05-06T08:05:44.535Z,101095.40
2023-05-06T08:10:47.342Z,101091.91
2023-05-06T08:15:50.374Z,101092.27
2023-05-06T08:20:53.305Z,101085.95
2023-05-06T08:25:56.094Z,101089.80
2023-05-06T08:30:58.923Z,101094.92
2023-05-06T08:36:01.733Z,101076.74
2023-05-06T08:41:09.829Z,101066.92
2023-05-06T08:46:13.738Z,101061.65
2023-05-06T08:51:17.096Z,101062.87
2023-05-06T08:56:26.110Z,101067.49
2023-05-06T09:01:29.358Z,101055.45
2023-05-06T09:06:32.986Z,101048.33
2023-05-06T09:11:40.126Z,101046.32
2023-05-06T09:16:47.985Z,101043.95
2023-05-06T09:22:07.291Z,101037.41
2023-05-06T09:27:12.297Z,101033.70
2023-05-06T09:32:17.878Z,101027.38
2023-05-06T09:37:22.089Z,101022.86
2023-05-06T09:42:26.930Z,101020.31
2023-05-06T09:47:34.921Z,101013.25
2023-05-06T09:52:40.426Z,101018.08
2023-05-06T09:57:44.663Z,101016.09
2023-05-06T10:02:48.798Z,101019.55
2023-05-06T10:07:53.576Z,101004.82
2023-05-06T10:12:56.575Z,101005.69
2023-05-06T10:18:01.795Z,100996.50
2023-05-06T10:23:23.680Z,100999.39
2023-05-06T10:28:31.029Z,100999.42
2023-05-06T10:33:34.920Z,100996.33
2023-05-06T10:38:43.737Z,100993.10
2023-05-06T10:43:47.779Z,100985.14
2023-05-06T10:49:11.302Z,100987.83
2023-05-06T10:54:20.515Z,100980.20
2023-05-06T10:59:25.788Z,100973.55
2023-05-06T11:04:30.809Z,100970.27
2023-05-06T11:09:33.807Z,100968.34
2023-05-06T11:14:39.739Z,100960.96
2023-05-06T11:19:42.538Z,100965.36
2023-05-06T11:24:45.444Z,100967.16
2023-05-06T11:29:48.259Z,100962.54
2023-05-06T11:34:55.892Z,100964.52
2023-05-06T11:39:58.637Z,100951.77
2023-05-06T11:45:02.225Z,100948.34
2023-05-06T11:50:07.795Z,100956.56
2023-05-06T11:55:11.936Z,100950.68
2023-05-06T12:00:15.192Z,100950.20
2023-05-06T12:05:22.435Z,100953.22
2023-05-06T12:10:26.691Z,100949.20
2023-05-06T12:15:30.015Z,100953.55
2023-05-06T12:20:32.979Z,100946.25
2023-05-06T12:25:35.950Z,100940.41
2023-05-06T12:30:38.902Z,100942.91
2023-05-06T12:35:41.700Z,100939.02
2023-05-06T12:40:52.888Z,100933.80
2023-05-06T12:46:07.366Z,100933.44
2023-05-06T12:51:22.620Z,100931.29
2023-05-06T12:56:25.446Z,100930.79
2023-05-06T13:01:28.540Z,100929.55
2023-05-06T13:06:31.845Z,100929.08
2023-05-06T13:11:34.606Z,100931.02
2023-05-06T13:16:38.546Z,100924.41
2023-05-06T13:21:41.631Z,100932.45
2023-05-06T13:26:45.067Z,100925.57
2023-05-06T13:31:47.872Z,100923.65
2023-05-06T13:36:51.051Z,100921.05
2023-05-06T13:41:56.761Z,100917.62
2023-05-06T13:47:00.540Z,100920.65
2023-05-06T13:52:05.171Z,100916.30
2023-05-06T13:57:09.217Z,100921.23
2023-05-06T14:02:12.158Z,100920.92
2023-05-06T14:07:15.090Z,100913.25
2023-05-06T14:12:17.933Z,100916.98
2023-05-06T14:17:21.230Z,100916.30
2023-05-06T14:22:27.861Z,100913.84
2023-05-06T14:27:31.588Z,100913.31
2023-05-06T14:32:35.743Z,100905.81
2023-05-06T14:37:41.821Z,100897.35
2023-05-06T14:42:46.477Z,100896.71
2023-05-06T14:47:51.769Z,100898.39
2023-05-06T14:52:54.962Z,100897.14
2023-05-06T14:57:57.865Z,100893.80
2023-05-06T15:03:01.395Z,100890.17
2023-05-06T15:08:06.839Z,100888.58
2023-05-06T15:13:09.920Z,100892.82
2023-05-06T15:18:13.400Z,100891.81
2023-05-06T15:23:16.300Z,100892.17
2023-05-06T15:28:19.553Z,100895.48
2023-05-06T15:33:22.398Z,100894.94
2023-05-06T15:38:25.800Z,100903.94
2023-05-06T15:43:37.488Z,100899.92
2023-05-06T15:48:42.043Z,100895.13
2023-05-06T15:53:45.473Z,100891.07
2023-05-06T15:58:48.653Z,100897.33
2023-05-06T16:03:52.399Z,100894.16
2023-05-06T16:08:58.419Z,100897.78
2023-05-06T16:14:03.584Z,100893.64
2023-05-06T16:19:07.509Z,100900.48
2023-05-06T16:24:11.467Z,100900.05
2023-05-06T16:29:17.569Z,100901.29
2023-05-06T16:34:20.884Z,100904.00
2023-05-06T16:39:24.153Z,100905.48
2023-05-06T16:44:27.113Z,100905.26
2023-05-06T16:49:30.101Z,100904.70
2023-05-06T16:54:35.653Z,100901.33
2023-05-06T16:59:40.760Z,100902.20
2023-05-06T17:04:43.662Z,100902.52
2023-05-06T17:09:46.420Z,100901.08
2023-05-06T17:14:51.661Z,100898.91
2023-05-06T17:19:57.645Z,100905.16
2023-05-06T17:25:00.516Z,100907.59
2023-05-06T17:30:06.056Z,100903.54
2023-05-06T17:35:12.798Z,100903.12
2023-05-06T17:40:16.419Z,100902.70
2023-05-06T17:45:21.404Z,100905.96
2023-05-06T17:50:26.540Z,100904.16
2023-05-06T17:55:29.422Z,100907.63
2023-05-06T18:00:32.869Z,100908.11
2023-05-06T18:05:35.777Z,100909.84
2023-05-06T18:10:41.227Z,100917.33
2023-05-06T18:15:44.680Z,100922.22
2023-05-06T18:20:47.898Z,100922.37
2023-05-06T18:25:50.753Z,100926.35
2023-05-06T18:30:53.532Z,100925.96
2023-05-06T18:36:05.116Z,100929.23
2023-05-06T18:41:11.148Z,100931.45
2023-05-06T18:46:14.068Z,100938.17
2023-05-06T18:51:17.729Z,100939.10
2023-05-06T18:56:22.587Z,100940.23
2023-05-06T19:01:25.499Z,100947.46
2023-05-06T19:06:28.499Z,100951.55
2023-05-06T19:11:31.676Z,100955.48
2023-05-06T19:16:34.523Z,100961.30
2023-05-06T19:21:41.212Z,100963.45
2023-05-06T19:26:46.123Z,100966.46
2023-05-06T19:31:49.126Z,100964.24
2023-05-06T19:36:52.930Z,100959.09
2023-05-06T19:41:55.778Z,100955.65
2023-05-06T19:46:58.562Z,100963.19
2023-05-06T19:52:01.361Z,100959.79
2023-05-06T19:57:04.109Z,100963.85
2023-05-06T20:02:11.335Z,100965.63
2023-05-06T20:07:16.763Z,100971.77
2023-05-06T20:12:19.908Z,100971.28
2023-05-06T20:17:23.383Z,100977.93
2023-05-06T20:22:27.206Z,100978.15
2023-05-06T20:27:30.162Z,100979.23
2023-05-06T20:32:33.098Z,100976.31
2023-05-06T20:37:36.716Z,100969.95
2023-05-06T20:42:44.199Z,100968.79
2023-05-06T20:47:47.152Z,100969.02
2023-05-06T20:52:52.514Z,100972.05
2023-05-06T20:57:55.285Z,100974.19
2023-05-06T21:02:58.273Z,100970.80
2023-05-06T21:08:01.402Z,100971.71
2023-05-06T21:13:04.915Z,100973.98
2023-05-06T21:18:08.538Z,100978.34
2023-05-06T21:23:11.462Z,100984.79
2023-05-06T21:28:14.440Z,100981.34
2023-05-06T21:33:18.039Z,100980.52
2023-05-06T21:38:21.337Z,100980.02
2023-05-06T21:43:24.226Z,100982.47
2023-05-06T21:48:26.937Z,100986.64
2023-05-06T21:53:29.734Z,100988.04
2023-05-06T21:58:32.525Z,100987.36
2023-05-06T22:03:37.271Z,100993.08
2023-05-06T22:08:42.637Z,100995.00
2023-05-06T22:13:45.820Z,100997.08
2023-05-06T22:18:48.579Z,100995.00
2023-05-06T22:23:51.326Z,100993.61
2023-05-06T22:28:57.471Z,100998.65
2023-05-06T22:34:04.519Z,100998.66
2023-05-06T22:39:07.390Z,100996.95
2023-05-06T22:44:10.524Z,100995.40
2023-05-06T22:49:14.540Z,101002.34
2023-05-06T22:54:17.340Z,100999.73
2023-05-06T22:59:20.118Z,101003.72
2023-05-06T23:04:23.646Z,101013.59
2023-05-06T23:09:26.412Z,101018.61
2023-05-06T23:14:29.158Z,101021.92
2023-05-06T23:19:31.860Z,101020.52
2023-05-06T23:24:34.709Z,101021.20
2023-05-06T23:29:37.440Z,101021.87
2023-05-06T23:34:40.217Z,101024.79
2023-05-06T23:39:43.098Z,101027.02
2023-05-06T23:49:47.144Z,101032.77
2023-05-06T23:54:50.150Z,101032.71
2023-05-06T23:59:53.099Z,101032.45
